Time;durP1;ratioP1;P1;durP2;ratioP2;P2;SDS_P1;SDS_P2;PMS_P1;PMS_P2;Temp;Humidity;BMP_temperature;BMP_pressure;BME280_temperature;BME280_humidity;BME280_pressure;Samples;Min_cycle;Max_cycle;Signal;HPM_P1;HPM_P2
2023/07/08 00:02:11;;;;;;;9.50;5.35;;;;;;;;;;5047921;28;20591;-78
2023/07/08 00:04:38;;;;;;;11.27;6.45;;;;;;;;;;5040184;28;20033;-79
2023/07/08 00:07:04;;;;;;;9.75;5.70;;;;;;;;;;5036234;28;20034;-79
2023/07/08 00:09:30;;;;;;;10.73;5.85;;;;;;;;;;5035693;28;20128;-78
2023/07/08 00:11:56;;;;;;;11.70;5.97;;;;;;;;;;5052951;28;20053;-78
2023/07/08 00:14:22;;;;;;;10.30;6.07;;;;;;;;;;5054533;28;20113;-78
2023/07/08 00:16:47;;;;;;;13.00;6.63;;;;;;;;;;5056445;28;20475;-79
2023/07/08 00:19:12;;;;;;;10.45;6.25;;;;;;;;;;5053995;28;20037;-79
2023/07/08 00:21:38;;;;;;;10.02;5.80;;;;;;;;;;5045552;28;20044;-78
2023/07/08 00:24:03;;;;;;;11.50;6.47;;;;;;;;;;5035787;28;20036;-78
2023/07/08 00:26:30;;;;;;;9.05;5.78;;;;;;;;;;5035452;28;20029;-78
2023/07/08 00:28:56;;;;;;;12.77;6.38;;;;;;;;;;5032997;28;20037;-77
2023/07/08 00:31:23;;;;;;;10.88;6.28;;;;;;;;;;5041901;28;20029;-78
2023/07/08 00:33:58;;;;;;;11.13;5.78;;;;;;;;;;5036420;28;20122;-77
2023/07/08 00:36:25;;;;;;;9.90;6.10;;;;;;;;;;5032922;28;20033;-77
2023/07/08 00:38:52;;;;;;;9.20;5.72;;;;;;;;;;5032768;28;20156;-77
2023/07/08 00:41:27;;;;;;;15.75;5.85;;;;;;;;;;5033040;28;20065;-77
2023/07/08 00:43:55;;;;;;;10.00;5.82;;;;;;;;;;5032813;28;20116;-78
2023/07/08 00:46:26;;;;;;;11.55;6.50;;;;;;;;;;5031706;28;20029;-79
2023/07/08 00:49:09;;;;;;;12.00;6.22;;;;;;;;;;5050630;28;20495;-77
2023/07/08 00:51:40;;;;;;;10.43;6.30;;;;;;;;;;5044250;28;20040;-77
2023/07/08 00:54:13;;;;;;;15.52;6.40;;;;;;;;;;5039599;28;20025;-77
2023/07/08 00:56:55;;;;;;;10.93;6.80;;;;;;;;;;5032174;28;20029;-77
2023/07/08 00:59:28;;;;;;;10.68;6.50;;;;;;;;;;5032322;28;20040;-77
2023/07/08 01:01:55;;;;;;;10.32;5.57;;;;;;;;;;5031557;28;20125;-77
2023/07/08 01:04:53;;;;;;;10.40;6.50;;;;;;;;;;5030859;28;20116;-77
2023/07/08 01:07:21;;;;;;;12.90;5.63;;;;;;;;;;5030591;28;20454;-78
2023/07/08 01:09:51;;;;;;;19.02;6.10;;;;;;;;;;5031480;28;20041;-78
2023/07/08 01:12:23;;;;;;;16.33;5.93;;;;;;;;;;5035773;28;20025;-78
2023/07/08 01:14:53;;;;;;;9.35;5.80;;;;;;;;;;5033045;28;20109;-78
2023/07/08 01:17:19;;;;;;;8.15;5.32;;;;;;;;;;5039765;28;20048;-78
2023/07/08 01:19:44;;;;;;;9.85;5.78;;;;;;;;;;5050983;28;20025;-77
2023/07/08 01:22:10;;;;;;;10.77;6.60;;;;;;;;;;5034813;28;20569;-78
2023/07/08 01:24:39;;;;;;;15.18;6.55;;;;;;;;;;5032779;28;20089;-78
2023/07/08 01:27:07;;;;;;;19.40;6.40;;;;;;;;;;5041194;28;20029;-78
2023/07/08 01:29:34;;;;;;;9.85;5.57;;;;;;;;;;5038329;28;20100;-78
2023/07/08 01:32:02;;;;;;;10.20;6.00;;;;;;;;;;5031495;28;20034;-77
2023/07/08 01:34:37;;;;;;;10.88;6.07;;;;;;;;;;5046748;28;20487;-77
2023/07/08 01:37:05;;;;;;;10.90;6.30;;;;;;;;;;5043086;28;20056;-77
2023/07/08 01:39:32;;;;;;;11.38;6.22;;;;;;;;;;5033471;28;20038;-77
2023/07/08 01:41:58;;;;;;;11.20;6.20;;;;;;;;;;5036830;28;20520;-77
2023/07/08 01:44:32;;;;;;;10.80;5.95;;;;;;;;;;5032500;28;20022;-77
2023/07/08 01:47:07;;;;;;;10.52;6.63;;;;;;;;;;5035812;28;20052;-77
2023/07/08 01:49:33;;;;;;;;;;;;;;;;;;5044397;28;20029;-77
2023/07/08 01:51:59;;;;;;;14.70;6.68;;;;;;;;;;5051959;28;19924;-77
2023/07/08 01:54:24;;;;;;;12.52;6.65;;;;;;;;;;5041839;28;20034;-77
2023/07/08 01:56:56;;;;;;;10.45;6.22;;;;;;;;;;5045491;28;20506;-77
2023/07/08 01:59:21;;;;;;;10.75;6.80;;;;;;;;;;5032372;28;20034;-78
2023/07/08 02:01:47;;;;;;;12.25;6.75;;;;;;;;;;5031824;28;20525;-77
2023/07/08 02:04:12;;;;;;;10.20;6.70;;;;;;;;;;5031682;28;20388;-77
2023/07/08 02:06:38;;;;;;;9.82;5.90;;;;;;;;;;5032076;28;20037;-77
2023/07/08 02:09:05;;;;;;;15.93;6.60;;;;;;;;;;5031550;28;20436;-77
2023/07/08 02:11:30;;;;;;;15.23;6.85;;;;;;;;;;5043669;28;20333;-78
2023/07/08 02:13:55;;;;;;;11.95;6.72;;;;;;;;;;5049470;28;20063;-77
2023/07/08 02:16:21;;;;;;;9.18;6.07;;;;;;;;;;5044208;28;20316;-77
2023/07/08 02:18:46;;;;;;;12.85;6.75;;;;;;;;;;5044876;28;20037;-77
2023/07/08 02:21:12;;;;;;;11.10;6.40;;;;;;;;;;5044980;28;20037;-77
2023/07/08 02:23:39;;;;;;;10.88;6.55;;;;;;;;;;5035129;28;20022;-77
2023/07/08 02:26:04;;;;;;;14.25;7.18;;;;;;;;;;5034889;28;20025;-77
2023/07/08 02:28:29;;;;;;;11.45;6.30;;;;;;;;;;5034787;28;20033;-77
2023/07/08 02:30:55;;;;;;;10.43;6.30;;;;;;;;;;5034371;28;20152;-77
2023/07/08 02:33:20;;;;;;;11.40;6.78;;;;;;;;;;5038490;28;20146;-77
2023/07/08 02:35:46;;;;;;;11.77;6.82;;;;;;;;;;5042925;28;20052;-77
2023/07/08 02:38:11;;;;;;;11.90;5.88;;;;;;;;;;5034971;28;20022;-77
2023/07/08 02:40:36;;;;;;;13.25;6.88;;;;;;;;;;5036506;28;20535;-78
2023/07/08 02:43:02;;;;;;;11.25;6.72;;;;;;;;;;5048075;28;20056;-77
2023/07/08 02:45:27;;;;;;;13.27;6.55;;;;;;;;;;5037158;28;20040;-77
2023/07/08 02:47:52;;;;;;;10.15;6.00;;;;;;;;;;5050690;28;20064;-78
2023/07/08 02:50:18;;;;;;;10.85;6.63;;;;;;;;;;5051563;28;20491;-77
2023/07/08 02:52:44;;;;;;;9.85;6.38;;;;;;;;;;5034154;28;20033;-78
2023/07/08 02:55:09;;;;;;;13.48;6.53;;;;;;;;;;5050438;28;20495;-77
2023/07/08 02:57:34;;;;;;;9.68;5.97;;;;;;;;;;5052286;28;20514;-77
2023/07/08 03:00:00;;;;;;;9.02;6.50;;;;;;;;;;5053699;28;20128;-77
2023/07/08 03:02:26;;;;;;;11.57;6.35;;;;;;;;;;5053258;28;20410;-77
2023/07/08 03:04:54;;;;;;;10.35;6.22;;;;;;;;;;5051250;28;20040;-77
2023/07/08 03:07:19;;;;;;;12.43;7.05;;;;;;;;;;5052724;28;20458;-77
2023/07/08 03:09:44;;;;;;;11.57;5.95;;;;;;;;;;5039693;28;20112;-77
2023/07/08 03:12:11;;;;;;;11.35;6.18;;;;;;;;;;5051075;28;20425;-77
2023/07/08 03:14:36;;;;;;;19.02;6.65;;;;;;;;;;5045921;28;20044;-77
2023/07/08 03:17:02;;;;;;;12.05;5.95;;;;;;;;;;5051773;28;20052;-78
2023/07/08 03:19:27;;;;;;;9.20;5.68;;;;;;;;;;5045988;28;20108;-78
2023/07/08 03:21:53;;;;;;;13.23;5.75;;;;;;;;;;5040523;28;20033;-78
2023/07/08 03:24:18;;;;;;;17.05;6.10;;;;;;;;;;5037552;28;20052;-78
2023/07/08 03:26:44;;;;;;;10.38;6.50;;;;;;;;;;5054264;28;20021;-78
2023/07/08 03:29:16;;;;;;;14.70;6.60;;;;;;;;;;5047543;28;20033;-78
2023/07/08 03:31:42;;;;;;;13.65;6.60;;;;;;;;;;5053633;28;20041;-78
2023/07/08 03:34:17;;;;;;;10.10;6.05;;;;;;;;;;5042758;28;20395;-78
2023/07/08 03:36:50;;;;;;;14.38;6.95;;;;;;;;;;5045308;28;20029;-78
2023/07/08 03:39:18;;;;;;;12.15;5.93;;;;;;;;;;5054582;28;20187;-78
2023/07/08 03:41:44;;;;;;;14.32;6.72;;;;;;;;;;5048338;28;20070;-78
2023/07/08 03:44:09;;;;;;;9.48;5.90;;;;;;;;;;5054104;28;20098;-78
2023/07/08 03:46:34;;;;;;;11.73;6.60;;;;;;;;;;5049642;28;20029;-78
2023/07/08 03:49:00;;;;;;;13.25;6.70;;;;;;;;;;5056337;28;20049;-78
2023/07/08 03:51:28;;;;;;;11.27;6.03;;;;;;;;;;5043167;28;20045;-78
2023/07/08 03:53:54;;;;;;;16.05;6.60;;;;;;;;;;5050576;28;20055;-77
2023/07/08 03:56:19;;;;;;;12.50;6.22;;;;;;;;;;5053085;28;20697;-78
2023/07/08 03:58:44;;;;;;;10.63;6.03;;;;;;;;;;5036823;28;20484;-78
2023/07/08 04:01:20;;;;;;;11.18;5.95;;;;;;;;;;5044291;28;20498;-78
2023/07/08 04:03:46;;;;;;;12.98;6.40;;;;;;;;;;5046365;28;20037;-78
2023/07/08 04:06:11;;;;;;;11.73;6.57;;;;;;;;;;5047389;28;20648;-78
2023/07/08 04:08:36;;;;;;;12.60;7.30;;;;;;;;;;5056011;28;20040;-77
2023/07/08 04:11:02;;;;;;;10.90;6.57;;;;;;;;;;5037356;28;20038;-78
2023/07/08 04:13:27;;;;;;;13.38;6.47;;;;;;;;;;5042106;28;20423;-78
2023/07/08 04:15:58;;;;;;;11.82;6.47;;;;;;;;;;5034512;28;20091;-77
2023/07/08 04:18:23;;;;;;;11.48;6.07;;;;;;;;;;5046398;28;20041;-78
2023/07/08 04:20:52;;;;;;;14.05;7.22;;;;;;;;;;5046585;28;20036;-78
2023/07/08 04:23:18;;;;;;;9.85;5.88;;;;;;;;;;5037108;28;20036;-78
2023/07/08 04:25:43;;;;;;;11.23;6.45;;;;;;;;;;5052528;28;20041;-78
2023/07/08 04:28:09;;;;;;;10.38;5.45;;;;;;;;;;5044334;28;20044;-77
2023/07/08 04:30:40;;;;;;;11.48;5.97;;;;;;;;;;5049974;28;20075;-77
2023/07/08 04:33:07;;;;;;;12.25;5.85;;;;;;;;;;5048236;28;20032;-77
2023/07/08 04:35:33;;;;;;;9.20;5.80;;;;;;;;;;5045134;28;20490;-78
2023/07/08 04:37:58;;;;;;;10.43;5.50;;;;;;;;;;5048309;28;20029;-77
2023/07/08 04:40:23;;;;;;;11.85;6.57;;;;;;;;;;5046582;28;20530;-77
2023/07/08 04:42:50;;;;;;;10.73;6.13;;;;;;;;;;5041458;28;20036;-77
2023/07/08 04:45:17;;;;;;;8.68;5.82;;;;;;;;;;5047454;28;20116;-77
2023/07/08 04:47:43;;;;;;;15.43;6.13;;;;;;;;;;5045908;28;20169;-77
2023/07/08 04:50:11;;;;;;;12.18;5.60;;;;;;;;;;5049042;28;20029;-78
2023/07/08 04:52:39;;;;;;;11.40;5.45;;;;;;;;;;5049481;28;20032;-78
2023/07/08 04:55:05;;;;;;;19.35;5.72;;;;;;;;;;5047959;28;20448;-77
2023/07/08 04:57:30;;;;;;;11.65;5.65;;;;;;;;;;5049133;28;20056;-79
2023/07/08 04:59:55;;;;;;;10.98;5.35;;;;;;;;;;5053465;28;20427;-79
2023/07/08 05:02:21;;;;;;;9.93;5.35;;;;;;;;;;5052284;28;20041;-79
2023/07/08 05:04:46;;;;;;;11.50;5.70;;;;;;;;;;5050341;28;20481;-79
2023/07/08 05:07:11;;;;;;;9.48;5.72;;;;;;;;;;5050331;28;20098;-79
2023/07/08 05:09:37;;;;;;;11.27;5.28;;;;;;;;;;5049987;28;20033;-79
2023/07/08 05:12:02;;;;;;;9.60;4.85;;;;;;;;;;5051196;28;20025;-79
2023/07/08 05:14:28;;;;;;;8.55;4.90;;;;;;;;;;5051426;28;20132;-79
2023/07/08 05:16:53;;;;;;;9.90;4.93;;;;;;;;;;5054768;28;20396;-79
2023/07/08 05:19:21;;;;;;;7.13;4.35;;;;;;;;;;5046492;28;20040;-79
2023/07/08 05:21:48;;;;;;;12.35;4.88;;;;;;;;;;5045978;28;20044;-76
2023/07/08 05:24:13;;;;;;;8.38;4.72;;;;;;;;;;5051387;28;20043;-79
2023/07/08 05:26:38;;;;;;;11.60;4.50;;;;;;;;;;5049001;28;20555;-79
2023/07/08 05:29:05;;;;;;;11.45;5.30;;;;;;;;;;5053254;28;20097;-79
2023/07/08 05:31:30;;;;;;;15.13;5.43;;;;;;;;;;5045108;28;20407;-79
2023/07/08 05:33:55;;;;;;;10.20;4.95;;;;;;;;;;5053906;28;20033;-79
2023/07/08 05:36:20;;;;;;;9.98;4.82;;;;;;;;;;5053982;28;20036;-79
2023/07/08 05:38:46;;;;;;;6.70;4.38;;;;;;;;;;5054165;28;20078;-79
2023/07/08 05:41:12;;;;;;;15.82;4.65;;;;;;;;;;5041896;28;20396;-78
2023/07/08 05:43:37;;;;;;;11.30;4.65;;;;;;;;;;5036860;28;20065;-78
2023/07/08 05:46:03;;;;;;;9.10;4.68;;;;;;;;;;5047764;28;20429;-77
2023/07/08 05:48:28;;;;;;;10.40;4.22;;;;;;;;;;5047517;28;20120;-78
2023/07/08 05:50:55;;;;;;;11.27;4.80;;;;;;;;;;5050609;28;20033;-78
2023/07/08 05:53:20;;;;;;;11.50;5.13;;;;;;;;;;5052921;28;20179;-77
2023/07/08 05:55:47;;;;;;;21.27;5.32;;;;;;;;;;5046076;28;20104;-77
2023/07/08 05:58:15;;;;;;;9.02;4.50;;;;;;;;;;5054401;28;20037;-77
2023/07/08 06:00:40;;;;;;;10.95;5.00;;;;;;;;;;5055326;28;20055;-77
2023/07/08 06:03:06;;;;;;;12.35;4.95;;;;;;;;;;5053273;28;20041;-77
2023/07/08 06:05:32;;;;;;;9.45;4.63;;;;;;;;;;5056417;28;20486;-77
2023/07/08 06:07:58;;;;;;;10.25;4.47;;;;;;;;;;5055534;28;20132;-77
2023/07/08 06:10:23;;;;;;;8.88;4.72;;;;;;;;;;5054100;28;20028;-77
2023/07/08 06:12:49;;;;;;;7.90;3.97;;;;;;;;;;5051463;28;20120;-77
2023/07/08 06:15:14;;;;;;;13.32;4.60;;;;;;;;;;5052350;28;20535;-77
2023/07/08 06:17:39;;;;;;;7.32;4.22;;;;;;;;;;5048383;28;20029;-77
2023/07/08 06:20:05;;;;;;;10.10;4.28;;;;;;;;;;5052868;28;20112;-77
2023/07/08 06:22:30;;;;;;;10.20;4.78;;;;;;;;;;5048320;28;20033;-77
2023/07/08 06:24:56;;;;;;;9.40;5.00;;;;;;;;;;5049153;28;20565;-78
2023/07/08 06:27:21;;;;;;;6.97;4.40;;;;;;;;;;5041511;28;21291;-77
2023/07/08 06:29:46;;;;;;;10.63;4.55;;;;;;;;;;5046130;28;20030;-77
2023/07/08 06:32:11;;;;;;;9.32;4.20;;;;;;;;;;5052282;28;20052;-78
2023/07/08 06:34:37;;;;;;;11.75;4.55;;;;;;;;;;5052633;28;20028;-78
2023/07/08 06:37:02;;;;;;;9.20;4.43;;;;;;;;;;5053449;28;20063;-78
2023/07/08 06:39:28;;;;;;;7.10;4.18;;;;;;;;;;5049436;28;20029;-78
2023/07/08 06:41:53;;;;;;;37.63;6.10;;;;;;;;;;5054474;28;20036;-78
2023/07/08 06:44:18;;;;;;;11.10;4.35;;;;;;;;;;5052333;28;20029;-78
2023/07/08 06:46:43;;;;;;;97.50;9.70;;;;;;;;;;5052931;28;20040;-78
2023/07/08 06:49:09;;;;;;;27.45;5.43;;;;;;;;;;5054741;28;20127;-78
2023/07/08 06:51:35;;;;;;;8.65;4.20;;;;;;;;;;5052067;28;20037;-78
2023/07/08 06:54:04;;;;;;;6.50;3.90;;;;;;;;;;5055332;28;20017;-78
2023/07/08 06:56:30;;;;;;;11.23;4.00;;;;;;;;;;5052361;28;20104;-78
2023/07/08 06:58:56;;;;;;;15.75;5.10;;;;;;;;;;5053965;28;20059;-78
2023/07/08 07:01:21;;;;;;;23.80;4.95;;;;;;;;;;5047147;28;20660;-78
2023/07/08 07:03:46;;;;;;;7.85;4.35;;;;;;;;;;5052210;28;20403;-78
2023/07/08 07:06:12;;;;;;;9.93;4.13;;;;;;;;;;5053751;28;20021;-78
2023/07/08 07:08:37;;;;;;;10.95;4.40;;;;;;;;;;5051953;28;20032;-79
2023/07/08 07:11:02;;;;;;;7.05;4.30;;;;;;;;;;5056164;28;20041;-78
2023/07/08 07:13:27;;;;;;;10.30;4.07;;;;;;;;;;5055836;28;20116;-78
2023/07/08 07:15:53;;;;;;;7.05;4.47;;;;;;;;;;5058100;28;20373;-78
2023/07/08 07:18:18;;;;;;;8.32;4.10;;;;;;;;;;5056884;28;20025;-79
2023/07/08 07:20:49;;;;;;;7.55;4.30;;;;;;;;;;5048362;28;20021;-79
2023/07/08 07:23:15;;;;;;;13.90;4.32;;;;;;;;;;5056323;28;20068;-78
2023/07/08 07:25:40;;;;;;;8.20;4.00;;;;;;;;;;5044415;28;20041;-78
2023/07/08 07:28:05;;;;;;;6.10;3.88;;;;;;;;;;5058067;28;20138;-78
2023/07/08 07:30:31;;;;;;;10.50;4.05;;;;;;;;;;5053258;28;20030;-78
2023/07/08 07:32:59;;;;;;;8.88;4.07;;;;;;;;;;5050660;28;20118;-78
2023/07/08 07:35:25;;;;;;;11.27;4.20;;;;;;;;;;5048112;28;20041;-78
2023/07/08 07:37:50;;;;;;;10.55;3.58;;;;;;;;;;5048280;28;20447;-78
2023/07/08 07:40:15;;;;;;;9.52;4.00;;;;;;;;;;5045905;28;20103;-78
2023/07/08 07:42:43;;;;;;;7.70;3.85;;;;;;;;;;5053983;28;20037;-78
2023/07/08 07:45:09;;;;;;;6.90;3.88;;;;;;;;;;5047478;28;20488;-79
2023/07/08 07:47:35;;;;;;;5.78;4.00;;;;;;;;;;5054201;28;20021;-78
2023/07/08 07:50:01;;;;;;;11.25;4.85;;;;;;;;;;5055191;28;20060;-78
2023/07/08 07:52:27;;;;;;;8.57;3.88;;;;;;;;;;5054512;28;20375;-79
2023/07/08 07:54:54;;;;;;;4.95;3.05;;;;;;;;;;5054701;28;20120;-78
2023/07/08 07:57:19;;;;;;;8.00;3.72;;;;;;;;;;5054217;28;20017;-78
2023/07/08 07:59:46;;;;;;;6.00;3.50;;;;;;;;;;5048492;28;20071;-78
2023/07/08 08:02:11;;;;;;;9.27;3.50;;;;;;;;;;5055710;28;20060;-79
2023/07/08 08:04:37;;;;;;;5.93;3.20;;;;;;;;;;5047292;28;20033;-78
2023/07/08 08:07:02;;;;;;;5.22;3.40;;;;;;;;;;5053051;28;20037;-78
2023/07/08 08:09:28;;;;;;;5.93;2.65;;;;;;;;;;5047348;28;20233;-81
2023/07/08 08:11:54;;;;;;;6.50;3.05;;;;;;;;;;5054152;28;20506;-78
2023/07/08 08:14:20;;;;;;;4.07;2.78;;;;;;;;;;5055080;28;20041;-78
2023/07/08 08:16:45;;;;;;;4.75;2.70;;;;;;;;;;5053586;28;20033;-78
2023/07/08 08:19:10;;;;;;;9.30;2.72;;;;;;;;;;5048202;28;20407;-78
2023/07/08 08:21:35;;;;;;;5.93;2.72;;;;;;;;;;5045760;28;20037;-78
2023/07/08 08:24:01;;;;;;;7.38;2.78;;;;;;;;;;5054394;28;20052;-78
2023/07/08 08:26:27;;;;;;;7.78;2.75;;;;;;;;;;5045947;28;20033;-78
2023/07/08 08:28:52;;;;;;;4.35;2.50;;;;;;;;;;5053585;28;20037;-78
2023/07/08 08:31:18;;;;;;;6.35;2.63;;;;;;;;;;5046729;28;20402;-78
2023/07/08 08:33:43;;;;;;;8.30;2.72;;;;;;;;;;5046762;28;20466;-78
2023/07/08 08:36:08;;;;;;;6.97;3.20;;;;;;;;;;5043510;28;20064;-78
2023/07/08 08:38:34;;;;;;;5.97;2.53;;;;;;;;;;5054110;28;20021;-78
2023/07/08 08:41:04;;;;;;;6.72;2.72;;;;;;;;;;5055527;28;20036;-78
2023/07/08 08:43:35;;;;;;;3.20;2.25;;;;;;;;;;5054682;28;20044;-78
2023/07/08 08:46:21;;;;;;;8.23;2.72;;;;;;;;;;5053944;28;20040;-78
2023/07/08 08:49:10;;;;;;;5.85;2.70;;;;;;;;;;5051987;28;20550;-78
2023/07/08 08:51:35;;;;;;;3.97;2.75;;;;;;;;;;5091635;22;20064;-76
2023/07/08 08:54:01;;;;;;;5.93;2.92;;;;;;;;;;5089058;28;20063;-76
2023/07/08 08:56:39;;;;;;;2.85;2.33;;;;;;;;;;5082073;28;20032;-76
2023/07/08 08:59:19;;;;;;;9.18;2.90;;;;;;;;;;5065204;28;20070;-76
2023/07/08 09:01:46;;;;;;;4.63;2.70;;;;;;;;;;5083642;28;20062;-76
2023/07/08 09:04:19;;;;;;;7.13;2.60;;;;;;;;;;5082276;28;20048;-76
2023/07/08 09:06:44;;;;;;;3.97;2.65;;;;;;;;;;5073834;28;20131;-76
2023/07/08 09:09:16;;;;;;;5.45;2.60;;;;;;;;;;5082205;28;20494;-76
2023/07/08 09:12:09;;;;;;;3.95;2.88;;;;;;;;;;5083495;28;20359;-76
2023/07/08 09:14:36;;;;;;;6.10;2.70;;;;;;;;;;5092978;28;20693;-76
2023/07/08 09:17:20;;;;;;;6.35;2.70;;;;;;;;;;5085282;28;20083;-76
2023/07/08 09:19:59;;;;;;;;;;;;;;;;;;5075160;28;20166;-76
2023/07/08 09:22:51;;;;;;;7.07;2.70;;;;;;;;;;5080706;28;19922;-76
2023/07/08 09:25:34;;;;;;;5.13;2.55;;;;;;;;;;5079652;28;20032;-76
2023/07/08 09:27:59;;;;;;;6.97;2.50;;;;;;;;;;5076645;28;20035;-76
2023/07/08 09:30:26;;;;;;;7.68;3.25;;;;;;;;;;5088702;28;20260;-76
2023/07/08 09:32:51;;;;;;;4.78;3.15;;;;;;;;;;5094197;28;20051;-76
2023/07/08 09:35:26;;;;;;;6.10;2.90;;;;;;;;;;5078996;28;20040;-76
2023/07/08 09:37:52;;;;;;;3.85;2.50;;;;;;;;;;5084774;28;20025;-76
2023/07/08 09:40:29;;;;;;;10.43;3.58;;;;;;;;;;5078907;28;20047;-76
2023/07/08 09:43:02;;;;;;;7.00;2.90;;;;;;;;;;5071442;28;20040;-76
2023/07/08 09:45:28;;;;;;;5.93;2.97;;;;;;;;;;5088867;28;20036;-76
2023/07/08 09:47:55;;;;;;;3.90;2.67;;;;;;;;;;5072584;28;20024;-76
2023/07/08 09:50:25;;;;;;;5.57;2.78;;;;;;;;;;5069957;28;20399;-76
2023/07/08 09:52:53;;;;;;;8.35;3.13;;;;;;;;;;5075624;28;20036;-76
2023/07/08 09:55:19;;;;;;;5.45;3.10;;;;;;;;;;5094680;28;20032;-76
2023/07/08 09:57:47;;;;;;;9.25;3.03;;;;;;;;;;5088927;28;20036;-76
2023/07/08 10:00:15;;;;;;;4.47;2.60;;;;;;;;;;5082288;28;20036;-76
2023/07/08 10:02:46;;;;;;;4.05;2.70;;;;;;;;;;5087384;28;20054;-76
2023/07/08 10:05:33;;;;;;;7.35;2.67;;;;;;;;;;5078427;28;20041;-76
2023/07/08 10:08:00;;;;;;;12.73;3.47;;;;;;;;;;5089007;28;20032;-76
2023/07/08 10:10:36;;;;;;;6.82;3.17;;;;;;;;;;5098681;28;20043;-76
2023/07/08 10:13:06;;;;;;;7.95;3.30;;;;;;;;;;5078215;28;20086;-76
2023/07/08 10:15:39;;;;;;;9.85;3.45;;;;;;;;;;5081325;28;20029;-76
2023/07/08 10:18:13;;;;;;;6.28;3.20;;;;;;;;;;5083235;28;20029;-76
2023/07/08 10:20:59;;;;;;;5.90;2.83;;;;;;;;;;5078661;28;20078;-76
2023/07/08 10:23:34;;;;;;;5.07;2.92;;;;;;;;;;5069510;28;20393;-76
2023/07/08 10:26:10;;;;;;;4.35;2.60;;;;;;;;;;5070201;28;20052;-76
2023/07/08 10:28:52;;;;;;;5.70;3.17;;;;;;;;;;5072524;28;20143;-76
2023/07/08 10:31:34;;;;;;;7.18;3.20;;;;;;;;;;5082083;28;20032;-76
2023/07/08 10:34:05;;;;;;;6.30;3.33;;;;;;;;;;5069726;28;20059;-76
2023/07/08 10:36:53;;;;;;;10.40;3.40;;;;;;;;;;5079994;28;20093;-76
2023/07/08 10:39:38;;;;;;;4.22;3.17;;;;;;;;;;5081847;28;20015;-77
2023/07/08 10:42:22;;;;;;;15.65;3.00;;;;;;;;;;5085317;28;20031;-76
2023/07/08 10:45:09;;;;;;;13.05;3.40;;;;;;;;;;5073963;28;20096;-77
2023/07/08 10:47:45;;;;;;;7.47;3.28;;;;;;;;;;5091035;28;20040;-77
2023/07/08 10:50:27;;;;;;;4.65;3.13;;;;;;;;;;5077879;28;20043;-76
2023/07/08 10:53:17;;;;;;;7.05;3.22;;;;;;;;;;5081245;28;20448;-77
2023/07/08 10:55:53;;;;;;;4.05;3.35;;;;;;;;;;5089910;28;20036;-76
2023/07/08 10:58:36;;;;;;;6.00;3.20;;;;;;;;;;5073438;28;20562;-76
2023/07/08 11:01:39;;;;;;;6.10;2.97;;;;;;;;;;5081385;28;20086;-77
2023/07/08 11:04:11;;;;;;;6.43;2.85;;;;;;;;;;5072914;28;20063;-76
2023/07/08 11:06:54;;;;;;;5.97;3.00;;;;;;;;;;5065395;28;20456;-76
2023/07/08 11:09:36;;;;;;;5.80;2.95;;;;;;;;;;5093412;28;20112;-76
2023/07/08 11:12:27;;;;;;;5.85;2.72;;;;;;;;;;5088029;28;20030;-77
2023/07/08 11:15:01;;;;;;;6.18;2.95;;;;;;;;;;5089653;28;20508;-76
2023/07/08 11:17:41;;;;;;;2.92;2.60;;;;;;;;;;5086574;28;20039;-77
2023/07/08 11:20:18;;;;;;;2.85;2.55;;;;;;;;;;5084535;28;20028;-76
2023/07/08 11:22:54;;;;;;;3.17;2.65;;;;;;;;;;5081452;28;20029;-76
2023/07/08 11:25:24;;;;;;;9.13;2.60;;;;;;;;;;5096321;28;20034;-77
2023/07/08 11:27:53;;;;;;;6.38;2.65;;;;;;;;;;5084651;28;20561;-76
2023/07/08 11:30:24;;;;;;;3.28;2.45;;;;;;;;;;5076195;28;20450;-76
2023/07/08 11:32:58;;;;;;;4.15;2.50;;;;;;;;;;5081159;28;20478;-76
2023/07/08 11:35:49;;;;;;;3.40;2.47;;;;;;;;;;5080979;28;20047;-76
2023/07/08 11:38:20;;;;;;;4.68;2.20;;;;;;;;;;5099327;28;20027;-76
2023/07/08 11:41:01;;;;;;;7.32;2.38;;;;;;;;;;5081363;28;20033;-76
2023/07/08 11:43:48;;;;;;;2.47;2.22;;;;;;;;;;5097085;28;20028;-76
2023/07/08 11:46:28;;;;;;;3.78;2.25;;;;;;;;;;5055586;28;20169;-76
2023/07/08 11:48:55;;;;;;;2.70;2.30;;;;;;;;;;5083766;28;20119;-77
2023/07/08 11:51:26;;;;;;;3.70;2.53;;;;;;;;;;5093378;28;20028;-77
2023/07/08 11:54:03;;;;;;;4.80;2.20;;;;;;;;;;5076383;28;20022;-77
2023/07/08 11:56:47;;;;;;;4.82;2.10;;;;;;;;;;5083116;28;20045;-76
2023/07/08 11:59:18;;;;;;;4.93;2.13;;;;;;;;;;5074047;28;20024;-77
2023/07/08 12:02:00;;;;;;;4.65;2.17;;;;;;;;;;5100089;28;20105;-77
2023/07/08 12:04:47;;;;;;;3.20;2.13;;;;;;;;;;5088013;28;20034;-76
2023/07/08 12:07:28;;;;;;;5.15;2.72;;;;;;;;;;5091505;28;20040;-76
2023/07/08 12:09:59;;;;;;;8.15;2.47;;;;;;;;;;5092691;28;20127;-76
2023/07/08 12:12:32;;;;;;;5.65;2.65;;;;;;;;;;5084595;28;20397;-76
2023/07/08 12:15:05;;;;;;;7.63;2.65;;;;;;;;;;5087400;28;20099;-77
2023/07/08 12:17:31;;;;;;;5.40;2.80;;;;;;;;;;5079791;28;20036;-77
2023/07/08 12:20:00;;;;;;;4.82;2.78;;;;;;;;;;5085385;28;20077;-77
2023/07/08 12:22:25;;;;;;;7.32;3.08;;;;;;;;;;5103153;28;20055;-77
2023/07/08 12:24:50;;;;;;;5.90;2.67;;;;;;;;;;5071201;28;20036;-77
2023/07/08 12:27:15;;;;;;;5.25;2.70;;;;;;;;;;5078620;28;20020;-77
2023/07/08 12:29:41;;;;;;;3.67;2.47;;;;;;;;;;5075314;28;20028;-77
2023/07/08 12:32:12;;;;;;;7.45;2.85;;;;;;;;;;5094014;28;20035;-76
2023/07/08 12:34:37;;;;;;;9.48;2.70;;;;;;;;;;5087865;28;20118;-77
2023/07/08 12:37:03;;;;;;;4.57;2.92;;;;;;;;;;5079071;28;20119;-77
2023/07/08 12:39:33;;;;;;;3.55;2.78;;;;;;;;;;5078412;28;20035;-77
2023/07/08 12:41:59;;;;;;;3.15;2.55;;;;;;;;;;5072217;28;20017;-77
2023/07/08 12:44:26;;;;;;;5.00;2.92;;;;;;;;;;5087876;28;20401;-76
2023/07/08 12:46:54;;;;;;;6.32;2.95;;;;;;;;;;5074726;28;20497;-77
2023/07/08 12:49:21;;;;;;;2.78;2.50;;;;;;;;;;5086291;28;20033;-76
2023/07/08 12:51:47;;;;;;;5.53;2.80;;;;;;;;;;5081171;28;20436;-76
2023/07/08 12:54:13;;;;;;;5.47;3.00;;;;;;;;;;5090963;28;20020;-76
2023/07/08 12:56:44;;;;;;;3.97;2.80;;;;;;;;;;5074552;28;20028;-77
2023/07/08 12:59:15;;;;;;;7.25;2.97;;;;;;;;;;5084519;28;20040;-76
2023/07/08 13:01:41;;;;;;;10.35;3.20;;;;;;;;;;5072573;28;20157;-77
2023/07/08 13:04:10;;;;;;;10.02;2.92;;;;;;;;;;5082440;28;20032;-76
2023/07/08 13:06:37;;;;;;;3.10;2.80;;;;;;;;;;5080671;28;20394;-76
2023/07/08 13:09:09;;;;;;;5.30;3.15;;;;;;;;;;5071133;28;20020;-76
2023/07/08 13:11:35;;;;;;;4.13;2.67;;;;;;;;;;5071182;28;20024;-77
2023/07/08 13:14:06;;;;;;;8.02;2.83;;;;;;;;;;5090283;28;20043;-76
2023/07/08 13:16:33;;;;;;;4.97;2.92;;;;;;;;;;5093680;28;20032;-77
2023/07/08 13:18:59;;;;;;;3.13;2.42;;;;;;;;;;5090856;28;20511;-77
2023/07/08 13:21:26;;;;;;;6.53;2.58;;;;;;;;;;5088920;28;20032;-76
2023/07/08 13:23:52;;;;;;;4.90;2.75;;;;;;;;;;5078947;28;20390;-76
2023/07/08 13:26:21;;;;;;;5.18;2.60;;;;;;;;;;5059735;28;20140;-76
2023/07/08 13:28:46;;;;;;;5.20;3.00;;;;;;;;;;5079623;28;20086;-76
2023/07/08 13:31:21;;;;;;;7.47;3.30;;;;;;;;;;5087809;28;20098;-76
2023/07/08 13:33:48;;;;;;;3.70;2.67;;;;;;;;;;5091063;28;20077;-77
2023/07/08 13:36:17;;;;;;;4.05;2.90;;;;;;;;;;5084117;28;20035;-76
2023/07/08 13:38:42;;;;;;;10.45;2.70;;;;;;;;;;5070790;28;20125;-76
2023/07/08 13:41:09;;;;;;;7.07;3.30;;;;;;;;;;5070400;28;20526;-77
2023/07/08 13:43:40;;;;;;;7.00;2.72;;;;;;;;;;5070777;28;20115;-77
2023/07/08 13:46:07;;;;;;;3.80;2.70;;;;;;;;;;5079864;28;20037;-77
2023/07/08 13:48:41;;;;;;;6.53;3.08;;;;;;;;;;5062991;28;20033;-77
2023/07/08 13:51:31;;;;;;;4.40;2.78;;;;;;;;;;5064445;28;20050;-76
2023/07/08 13:54:08;;;;;;;7.40;2.97;;;;;;;;;;5083855;28;20382;-77
2023/07/08 13:56:34;;;;;;;3.47;2.75;;;;;;;;;;5089275;28;20032;-76
2023/07/08 13:59:15;;;;;;;3.17;2.88;;;;;;;;;;5088117;28;20111;-77
2023/07/08 14:01:42;;;;;;;6.10;3.22;;;;;;;;;;5079045;28;20112;-76
2023/07/08 14:04:14;;;;;;;6.45;3.00;;;;;;;;;;5084634;28;20024;-76
2023/07/08 14:06:40;;;;;;;7.38;3.40;;;;;;;;;;5078499;28;20029;-76
2023/07/08 14:09:12;;;;;;;4.28;2.85;;;;;;;;;;5056947;28;20370;-77
2023/07/08 14:11:37;;;;;;;6.20;2.65;;;;;;;;;;5098709;28;20038;-77
2023/07/08 14:14:03;;;;;;;6.75;3.00;;;;;;;;;;5093321;28;20501;-77
2023/07/08 14:16:30;;;;;;;9.85;3.00;;;;;;;;;;5084052;28;20032;-76
2023/07/08 14:18:57;;;;;;;4.03;2.80;;;;;;;;;;5085749;28;20115;-76
2023/07/08 14:21:23;;;;;;;5.97;2.70;;;;;;;;;;5093890;28;20043;-76
2023/07/08 14:23:48;;;;;;;5.28;2.78;;;;;;;;;;5094034;28;20024;-76
2023/07/08 14:26:14;;;;;;;5.95;3.15;;;;;;;;;;5088101;28;20072;-77
2023/07/08 14:28:39;;;;;;;6.13;3.00;;;;;;;;;;5078029;28;20044;-76
2023/07/08 14:31:10;;;;;;;5.47;3.00;;;;;;;;;;5078722;28;20036;-76
2023/07/08 14:33:35;;;;;;;3.10;2.78;;;;;;;;;;5076904;28;20029;-77
2023/07/08 14:36:00;;;;;;;5.38;3.08;;;;;;;;;;5086017;28;20072;-76
2023/07/08 14:38:26;;;;;;;7.07;3.25;;;;;;;;;;5086226;28;20123;-77
2023/07/08 14:40:51;;;;;;;4.90;2.65;;;;;;;;;;5073163;28;20090;-77
2023/07/08 14:43:39;;;;;;;2.95;2.42;;;;;;;;;;5079888;28;20032;-77
2023/07/08 14:46:04;;;;;;;6.70;2.88;;;;;;;;;;5088928;28;20035;-77
2023/07/08 14:48:31;;;;;;;3.50;2.70;;;;;;;;;;5083873;28;20032;-76
2023/07/08 14:50:57;;;;;;;4.65;2.95;;;;;;;;;;5085788;28;20028;-76